createdAt,value
2023-02-11T00:39:55.209Z,18.91
2023-02-11T00:40:55.282Z,18.91
2023-02-11T00:41:55.359Z,18.91
2023-02-11T00:42:55.436Z,18.90
2023-02-11T00:43:55.528Z,18.90
2023-02-11T00:44:55.582Z,18.90
2023-02-11T00:45:55.732Z,18.90
2023-02-11T00:46:55.767Z,18.90
2023-02-11T00:47:55.812Z,18.88
2023-02-11T00:48:55.880Z,18.88
2023-02-11T00:49:55.949Z,18.88
2023-02-11T00:51:56.096Z,18.86
2023-02-11T00:52:56.266Z,18.90
2023-02-11T00:53:56.339Z,18.87
2023-02-11T00:54:56.333Z,18.88
2023-02-11T02:43:05.178Z,18.70
2023-02-11T02:44:05.255Z,18.67
2023-02-11T02:45:05.354Z,18.70
2023-02-11T02:46:05.432Z,18.67
2023-02-11T02:47:05.514Z,18.69
2023-02-11T02:48:06.302Z,18.69
2023-02-11T02:49:05.704Z,18.70
2023-02-11T02:50:05.747Z,18.64
2023-02-11T02:51:05.834Z,18.69
2023-02-11T02:52:05.896Z,18.69
2023-02-11T02:53:05.982Z,18.67
2023-02-11T02:54:06.063Z,18.66
2023-02-11T02:55:06.148Z,18.69
2023-02-11T02:56:06.215Z,18.67
2023-02-11T02:57:06.282Z,18.70
2023-02-11T03:09:09.059Z,18.69
2023-02-11T03:10:07.216Z,18.67
2023-02-11T03:11:07.231Z,18.66
2023-02-11T03:12:07.252Z,18.66
2023-02-11T03:13:07.270Z,18.67
2023-02-11T03:14:07.286Z,18.66
2023-02-11T03:15:07.301Z,18.67
2023-02-11T03:16:07.383Z,18.64
2023-02-11T03:17:07.353Z,18.64
2023-02-11T03:18:07.360Z,18.66
2023-02-11T03:19:07.376Z,18.64
2023-02-11T03:20:07.400Z,18.64
2023-02-11T03:21:07.418Z,18.63
2023-02-11T03:22:07.440Z,18.63
2023-02-11T03:23:07.468Z,18.64
2023-02-11T03:24:07.480Z,18.64
2023-02-11T03:25:07.511Z,18.66
2023-02-11T03:26:07.527Z,18.63
2023-02-11T03:27:07.549Z,18.64
2023-02-11T03:28:07.632Z,18.63
2023-02-11T03:29:07.598Z,18.63
2023-02-11T03:30:07.612Z,18.62
2023-02-11T03:31:07.897Z,18.63
2023-02-11T03:32:07.740Z,18.60
2023-02-11T03:33:07.686Z,18.62
2023-02-11T03:34:07.702Z,18.63
2023-02-11T03:35:07.754Z,18.60
2023-02-11T03:36:07.783Z,18.59
2023-02-11T03:37:07.862Z,18.62
2023-02-11T03:38:07.931Z,18.62
2023-02-11T03:39:08.022Z,18.62
2023-02-11T03:40:08.094Z,18.62
2023-02-11T03:41:08.165Z,18.62
2023-02-11T03:42:08.261Z,18.62
2023-02-11T03:43:08.344Z,18.59
2023-02-11T03:44:08.418Z,18.62
2023-02-11T03:45:08.513Z,18.62
2023-02-11T03:46:08.650Z,18.60
2023-02-11T03:47:08.672Z,18.62
2023-02-11T03:48:08.793Z,18.63
2023-02-11T03:49:08.820Z,18.60
2023-02-11T03:50:08.900Z,18.57
2023-02-11T03:51:08.981Z,18.59
2023-02-11T03:52:09.082Z,18.57
2023-02-11T03:53:09.156Z,18.59
2023-02-11T03:54:09.249Z,18.60
2023-02-11T03:55:09.330Z,18.56
2023-02-11T03:56:09.404Z,18.57
2023-02-11T03:57:09.479Z,18.57
2023-02-11T03:58:09.574Z,18.57
2023-02-11T03:59:09.641Z,18.56
2023-02-11T04:00:09.810Z,18.59
2023-02-11T04:01:09.968Z,18.56
2023-02-11T04:02:09.895Z,18.57
2023-02-11T04:03:10.054Z,18.56
2023-02-11T04:04:10.071Z,18.56
2023-02-11T04:05:10.156Z,18.56
2023-02-11T04:06:10.251Z,18.55
2023-02-11T04:07:10.343Z,18.56
2023-02-11T04:08:10.424Z,18.59
2023-02-11T04:09:10.533Z,18.56
2023-02-11T04:10:10.613Z,18.55
2023-02-11T04:11:10.702Z,18.55
2023-02-11T04:12:10.759Z,18.57
2023-02-11T04:13:10.841Z,18.55
2023-02-11T04:14:10.937Z,18.55
2023-02-11T04:15:11.033Z,18.53
2023-02-11T04:16:11.220Z,18.55
2023-02-11T04:17:11.220Z,18.55
2023-02-11T04:18:11.293Z,18.53
2023-02-11T04:19:11.384Z,18.52
2023-02-11T04:20:11.481Z,18.52
2023-02-11T04:21:11.633Z,18.56
2023-02-11T04:22:11.661Z,18.53
2023-02-11T04:23:11.745Z,18.53
2023-02-11T04:24:11.822Z,18.52
2023-02-11T04:25:11.901Z,18.53
2023-02-11T04:26:11.986Z,18.52
2023-02-11T04:27:12.080Z,18.52
2023-02-11T04:28:12.226Z,18.52
2023-02-11T04:29:12.255Z,18.50
2023-02-11T04:30:12.418Z,18.55
2023-02-11T04:31:12.440Z,18.52
2023-02-11T04:32:12.540Z,18.53
2023-02-11T04:33:13.349Z,18.53
2023-02-11T04:34:12.657Z,18.50
2023-02-11T04:35:12.723Z,18.52
2023-02-11T04:36:12.817Z,18.50
2023-02-11T04:37:12.904Z,18.50
2023-02-11T04:59:15.356Z,18.48
2023-02-11T05:07:15.149Z,18.46
2023-02-11T05:10:15.208Z,18.45
2023-02-11T05:11:15.227Z,18.45
2023-02-11T05:12:15.270Z,18.46
2023-02-11T05:13:15.309Z,18.45
2023-02-11T05:14:15.334Z,18.45
2023-02-11T05:15:15.370Z,18.46
2023-02-11T05:16:15.425Z,18.45
2023-02-11T05:17:15.433Z,18.43
2023-02-11T05:18:15.490Z,18.42
2023-02-11T05:19:15.497Z,18.43
2023-02-11T05:20:15.546Z,18.43
2023-02-11T05:21:15.554Z,18.43
2023-02-11T05:22:15.595Z,18.43
2023-02-11T05:23:15.612Z,18.42
2023-02-11T05:24:15.641Z,18.42
2023-02-11T05:25:15.702Z,18.42
2023-02-11T05:26:15.762Z,18.39
2023-02-11T05:27:15.823Z,18.40
2023-02-11T05:28:15.913Z,18.42
2023-02-11T05:29:15.950Z,18.42
2023-02-11T05:30:16.059Z,18.40
2023-02-11T05:31:16.170Z,18.39
2023-02-11T05:32:16.176Z,18.40
2023-02-11T05:33:16.218Z,18.40
2023-02-11T05:56:17.448Z,18.38
2023-02-11T05:57:17.507Z,18.36
2023-02-11T05:58:17.594Z,18.35
2023-02-11T05:59:17.618Z,18.35
2023-02-11T06:00:17.679Z,18.35
2023-02-11T06:01:18.375Z,18.36
2023-02-11T06:02:17.806Z,18.33
2023-02-11T06:03:17.854Z,18.36
2023-02-11T06:04:17.895Z,18.38
2023-02-11T06:05:17.950Z,18.32
2023-02-11T06:06:18.065Z,18.36
2023-02-11T06:07:18.038Z,18.36
2023-02-11T06:08:18.099Z,18.35
2023-02-11T06:09:18.163Z,18.33
2023-02-11T06:10:18.192Z,18.35
2023-02-11T06:11:18.214Z,18.35
2023-02-11T06:12:18.255Z,18.32
2023-02-11T06:13:18.299Z,18.32
2023-02-11T06:14:18.320Z,18.35
2023-02-11T06:15:18.356Z,18.32
2023-02-11T06:16:18.466Z,18.33
2023-02-11T06:17:18.447Z,18.33
2023-02-11T06:18:18.490Z,18.33
2023-02-11T06:19:18.531Z,18.33
2023-02-11T06:20:18.571Z,18.31
2023-02-11T06:21:18.600Z,18.29
2023-02-11T06:22:18.680Z,18.33
2023-02-11T06:23:18.885Z,18.29
2023-02-11T06:24:33.083Z,18.31
2023-02-11T06:25:19.700Z,18.31
2023-02-11T06:26:18.707Z,18.28
2023-02-11T06:27:18.724Z,18.29
2023-02-11T06:28:18.815Z,18.32
2023-02-11T06:29:18.779Z,18.31
2023-02-11T06:30:18.809Z,18.32
2023-02-11T06:31:18.965Z,18.32
2023-02-11T06:32:39.437Z,18.31
2023-02-11T06:33:19.880Z,18.31
2023-02-11T06:34:18.897Z,18.29
2023-02-11T06:35:18.924Z,18.32
2023-02-11T06:36:18.956Z,18.32
2023-02-11T06:37:18.966Z,18.29
2023-02-11T06:38:19.006Z,18.28
2023-02-11T06:39:19.026Z,18.33
2023-02-11T06:40:19.050Z,18.29
2023-02-11T06:41:19.074Z,18.31
2023-02-11T06:42:19.110Z,18.33
2023-02-11T06:43:19.132Z,18.31
2023-02-11T06:44:19.150Z,18.31
2023-02-11T06:45:19.189Z,18.31
2023-02-11T06:46:19.267Z,18.31
2023-02-11T06:47:19.217Z,18.31
2023-02-11T06:48:19.251Z,18.31
2023-02-11T06:49:19.274Z,18.29
2023-02-11T06:50:19.287Z,18.27
2023-02-11T06:51:19.306Z,18.28
2023-02-11T06:52:19.343Z,18.28
2023-02-11T06:53:19.377Z,18.29
2023-02-11T06:54:19.377Z,18.27
2023-02-11T06:55:19.393Z,18.28
2023-02-11T06:56:19.424Z,18.29
2023-02-11T06:57:19.448Z,18.28
2023-02-11T06:58:19.470Z,18.29
2023-02-11T06:59:19.494Z,18.28
2023-02-11T07:00:19.534Z,18.29
2023-02-11T07:01:19.559Z,18.29
2023-02-11T07:02:21.024Z,18.29
2023-02-11T07:03:19.644Z,18.29
2023-02-11T09:48:25.204Z,18.32
2023-02-11T09:49:25.275Z,18.33
2023-02-11T09:50:25.363Z,18.36
2023-02-11T12:01:35.509Z,19.68
2023-02-11T12:13:35.179Z,19.72
2023-02-11T12:14:35.265Z,19.70
2023-02-11T12:15:35.329Z,19.69
2023-02-11T12:16:35.420Z,19.66
2023-02-11T12:17:35.451Z,19.66
2023-02-11T12:18:35.516Z,19.68
2023-02-11T12:19:35.581Z,19.69
2023-02-11T12:20:35.654Z,19.69
2023-02-11T12:21:35.730Z,19.74
2023-02-11T12:23:35.902Z,19.79
2023-02-11T15:17:45.177Z,18.69
2023-02-11T15:18:45.266Z,18.70
2023-02-11T15:19:45.348Z,18.69
2023-02-11T15:20:45.433Z,18.67
2023-02-11T15:21:45.534Z,18.66
2023-02-11T15:22:45.629Z,18.69
2023-02-11T15:23:45.704Z,18.67
2023-02-11T15:29:46.235Z,18.67
2023-02-11T15:32:46.507Z,18.64
2023-02-11T15:43:47.399Z,18.64
2023-02-11T15:45:47.558Z,18.62
2023-02-11T17:28:55.178Z,18.50
2023-02-11T17:29:55.226Z,18.49
2023-02-11T17:30:55.329Z,18.49
2023-02-11T17:31:55.483Z,18.48
2023-02-11T17:32:55.396Z,18.48
2023-02-11T17:33:55.458Z,18.49
2023-02-11T17:34:55.509Z,18.48
2023-02-11T17:35:55.554Z,18.49
2023-02-11T17:36:55.585Z,18.49
2023-02-11T17:37:56.136Z,18.48
2023-02-11T17:38:55.655Z,18.46
2023-02-11T17:39:55.687Z,18.48
2023-02-11T17:40:55.726Z,18.48
2023-02-11T17:41:55.771Z,18.49
2023-02-11T17:42:55.836Z,18.48
2023-02-11T17:43:55.876Z,18.48
2023-02-11T17:44:55.948Z,18.49
2023-02-11T17:45:56.079Z,18.49
2023-02-11T17:46:56.072Z,18.50
2023-02-11T17:47:56.118Z,18.48
2023-02-11T17:48:56.164Z,18.48
2023-02-11T17:49:56.228Z,18.48
2023-02-11T17:50:56.294Z,18.50
2023-02-11T17:51:56.400Z,18.49
2023-02-11T17:52:56.479Z,18.50
2023-02-11T17:53:56.558Z,18.48
2023-02-11T17:54:56.634Z,18.48
2023-02-11T17:55:56.705Z,18.50
2023-02-11T17:56:58.396Z,18.48
2023-02-11T17:57:56.863Z,18.49
2023-02-11T17:58:56.945Z,18.49
2023-02-11T17:59:57.043Z,18.50
2023-02-11T18:00:57.103Z,18.46
2023-02-11T18:01:57.155Z,18.48
2023-02-11T18:02:57.672Z,18.49
2023-02-11T18:03:57.317Z,18.50
2023-02-11T18:04:57.487Z,18.48
2023-02-11T18:05:57.483Z,18.50
2023-02-11T18:06:57.587Z,18.48
2023-02-11T18:07:57.673Z,18.46
2023-02-11T18:08:58.091Z,18.50
2023-02-11T18:09:57.843Z,18.49
2023-02-11T18:10:57.922Z,18.50
2023-02-11T19:56:05.224Z,18.50
2023-02-11T19:57:05.237Z,18.50
2023-02-11T19:58:05.268Z,18.49
2023-02-11T19:59:05.347Z,18.49
2023-02-11T20:00:05.458Z,18.46
2023-02-11T20:01:05.517Z,18.50
2023-02-11T20:02:05.568Z,18.49
2023-02-11T20:03:05.575Z,18.52
2023-02-11T22:05:15.732Z,18.48
2023-02-11T22:07:15.177Z,18.50
2023-02-11T22:08:15.215Z,18.49
2023-02-11T22:09:15.275Z,18.49
2023-02-11T22:10:15.338Z,18.50
2023-02-11T22:11:15.386Z,18.50
2023-02-11T22:12:15.449Z,18.49
2023-02-11T22:13:15.522Z,18.46
2023-02-11T22:14:15.565Z,18.48
2023-02-11T22:15:15.704Z,18.50
2023-02-11T22:16:15.720Z,18.52
2023-02-11T22:17:15.742Z,18.49
2023-02-11T22:18:15.822Z,18.46
2023-02-11T22:19:15.824Z,18.49
2023-02-11T22:20:15.892Z,18.48
